Stella Polaris — PEBD — position and weather

sailwx.info

Track history (hours):
 
Tides and Currents Weather Stations Pressure Air Temp Water Temp Dewpoint Dewpoint Depression Visibility Wind Speed Wind Dir Waves Ship Positions

Stella Polaris

Last reported at 2016-Nov-28 11:04 UTC. Time now 2016-Dec-05 20:36 UTC.
Position N 49°52' W 004°28'.

Length 117 m; draft 7.7 m.

Type: Ship (hazmat cat A). MMSI: 245911000.

Date/timePositionNaut miles runAvg speedWind from/ knotsBaromVisibWave heightAir tempDewpointWater temp
2016-Nov-28 11:04N 49°52' W 004°28'914.3
2016-Nov-28 10:26N 49°54' W 004°14'1214.1
2016-Nov-28 09:33N 49°55' W 003°55'1413.6
2016-Nov-28 08:33N 49°57' W 003°33'1412.7
2016-Nov-28 07:25N 49°58' W 003°11'1011.8
2016-Nov-28 06:33N 49°60' W 002°56'5112.8
2016-Nov-28 02:33N 50°14' W 001°39'5015.5
2016-Nov-27 23:19N 50°27' W 000°24'1114.0
2016-Nov-27 22:32N 50°30' W 000°07'1313.1
2016-Nov-27 21:31N 50°34' E 000°13'4312.6
2016-Nov-27 18:07N 50°55' E 001°12'915.3
2016-Nov-27 17:33N 51°01' E 001°22'1515.4
2016-Nov-27 16:33N 51°11' E 001°41'1413.8
2016-Nov-27 15:34N 51°21' E 001°55'1110.7
2016-Nov-27 14:31N 51°22' E 002°13'1111.9
2016-Nov-27 13:33N 51°23' E 002°31'1211.8
2016-Nov-27 12:33N 51°22' E 002°50'1111.1
2016-Nov-27 11:34N 51°24' E 003°07'1110.5
2016-Nov-27 10:33N 51°25' E 003°24'1010.3
2016-Nov-27 09:33N 51°26' E 003°41'8 8.4
2016-Nov-27 08:33N 51°20' E 003°49'3 3.0
2016-Nov-27 07:33N 51°17' E 003°50'5 4.6
2016-Nov-27 06:33N 51°12' E 003°48'0 0.0
2016-Nov-27 05:29N 51°12' E 003°48'0 0.0
2016-Nov-27 04:26N 51°12' E 003°48'0 0.0
2016-Nov-27 03:32N 51°12' E 003°48'0 0.0
2016-Nov-27 00:08N 51°12' E 003°48'0 0.0
2016-Nov-26 23:31N 51°12' E 003°48'0 0.0
2016-Nov-26 21:31N 51°12' E 003°48'0 0.0
2016-Nov-26 20:13N 51°12' E 003°48'0 0.0
2016-Nov-26 19:28N 51°12' E 003°48'0 0.0
2016-Nov-26 18:28N 51°12' E 003°48'0 0.0
2016-Nov-26 17:25N 51°12' E 003°48'0 0.0
2016-Nov-26 16:28N 51°12' E 003°48'0 0.0
2016-Nov-26 15:31N 51°12' E 003°48'0 0.0
2016-Nov-26 14:19N 51°12' E 003°48'0 0.0
2016-Nov-26 13:25N 51°12' E 003°48'0 0.0
2016-Nov-26 12:28N 51°12' E 003°48'0 0.0
2016-Nov-26 11:31N 51°12' E 003°48'0 0.0
2016-Nov-26 10:30N 51°12' E 003°48'0 0.0
2016-Nov-26 09:30N 51°12' E 003°48'0 0.0
2016-Nov-26 08:27N 51°12' E 003°48'0 0.0
2016-Nov-26 07:33N 51°12' E 003°48'0 0.0
2016-Nov-26 06:18N 51°12' E 003°48'0 0.0
2016-Nov-26 05:21N 51°12' E 003°48'0 0.0
2016-Nov-26 03:24N 51°12' E 003°48'0 0.0
2016-Nov-26 02:24N 51°12' E 003°48'0 0.0
2016-Nov-26 01:30N 51°12' E 003°48'0 0.0
2016-Nov-26 00:33N 51°12' E 003°48'0 0.0
2016-Nov-25 23:16N 51°12' E 003°48'0 0.0
2016-Nov-25 22:25N 51°12' E 003°48'0 0.0
2016-Nov-25 21:31N 51°12' E 003°48'0 0.0
2016-Nov-25 20:22N 51°12' E 003°48'0 0.0
2016-Nov-25 19:33N 51°12' E 003°48'5 4.9
2016-Nov-25 18:33N 51°17' E 003°50'3 2.9
2016-Nov-25 17:34N 51°20' E 003°49'4 4.3
2016-Nov-25 16:33N 51°23' E 003°44'8 7.6
2016-Nov-25 15:33N 51°27' E 003°34'1010.1
2016-Nov-25 14:33N 51°35' E 003°24'1211.3
2016-Nov-25 13:32N 51°45' E 003°16'2 0.6
2016-Nov-25 10:32N 51°46' E 003°19'0 0.0
2016-Nov-25 09:17N 51°46' E 003°19'0 0.0
2016-Nov-25 08:14N 51°46' E 003°19'0 0.0
2016-Nov-25 07:26N 51°46' E 003°19'0 0.0
2016-Nov-25 06:32N 51°46' E 003°19'0 0.0
2016-Nov-25 05:32N 51°46' E 003°19'0 0.0
2016-Nov-25 04:32N 51°46' E 003°19'0 0.0
2016-Nov-25 03:26N 51°46' E 003°19'0 0.0
2016-Nov-25 02:32N 51°46' E 003°19'0 0.0
2016-Nov-25 01:26N 51°46' E 003°19'0 0.0
2016-Nov-25 00:20N 51°46' E 003°19'0 0.0
2016-Nov-24 16:32N 51°46' E 003°19'0 0.0
2016-Nov-24 15:29N 51°46' E 003°19'0 0.0
2016-Nov-24 13:17N 51°46' E 003°19'0 0.0
2016-Nov-24 12:05N 51°46' E 003°19'0 0.0
2016-Nov-24 11:32N 51°46' E 003°19'0 0.0
2016-Nov-24 09:28N 51°46' E 003°19'0 0.0
2016-Nov-24 08:22N 51°46' E 003°19'0 0.0
2016-Nov-24 07:09N 51°46' E 003°19'0 0.0
2016-Nov-24 06:12N 51°46' E 003°19'0 0.0
2016-Nov-24 00:18N 51°46' E 003°19'0 0.0
2016-Nov-23 23:27N 51°46' E 003°19'0 0.0
2016-Nov-23 22:33N 51°46' E 003°19'0 0.0
2016-Nov-23 21:33N 51°46' E 003°19'0 0.0
2016-Nov-23 18:33N 51°46' E 003°19'0 0.0
2016-Nov-23 16:27N 51°46' E 003°19'0 0.0
2016-Nov-23 15:33N 51°46' E 003°19'0 0.0
2016-Nov-23 14:33N 51°46' E 003°19'0 0.0
2016-Nov-23 13:15N 51°46' E 003°19'0 0.1
2016-Nov-23 11:09N 51°46' E 003°19'0 0.0
2016-Nov-23 10:33N 51°46' E 003°19'0 0.0
2016-Nov-23 09:33N 51°46' E 003°19'0 0.0
2016-Nov-23 08:33N 51°46' E 003°19'0 0.0
2016-Nov-23 07:24N 51°46' E 003°19'0 0.0
2016-Nov-23 06:33N 51°46' E 003°19'0 0.0
2016-Nov-23 03:33N 51°46' E 003°19'0 0.0
2016-Nov-23 02:33N 51°46' E 003°19'0 0.1
2016-Nov-23 00:33N 51°46' E 003°19'0 0.0
2016-Nov-22 23:33N 51°46' E 003°19'4 3.6
2016-Nov-22 22:33N 51°43' E 003°17'2311.4
2016-Nov-22 20:33N 51°26' E 003°42'8 7.6
2016-Nov-22 19:33N 51°19' E 003°49'7 3.6
2016-Nov-22 17:31N 51°12' E 003°48'0 0.0
2016-Nov-22 16:13N 51°12' E 003°48'0 0.0
2016-Nov-22 15:28N 51°12' E 003°48'0 0.0
2016-Nov-22 14:28N 51°12' E 003°48'0 0.0
2016-Nov-22 13:31N 51°12' E 003°48'0 0.0
2016-Nov-22 09:28N 51°12' E 003°48'0 0.0
2016-Nov-22 07:28N 51°12' E 003°48'0 0.0
2016-Nov-22 05:28N 51°12' E 003°48'0 0.0
2016-Nov-21 17:17N 51°12' E 003°48'0 0.0
2016-Nov-21 07:14N 51°12' E 003°48'0 0.0
2016-Nov-21 05:32N 51°12' E 003°48'0 0.0
2016-Nov-21 04:29N 51°12' E 003°48'0 0.0
2016-Nov-20 22:07N 51°12' E 003°48'0 0.0
2016-Nov-20 21:10N 51°12' E 003°48'0 0.0
2016-Nov-20 14:33N 51°12' E 003°48'4 4.5
2016-Nov-20 13:33N 51°16' E 003°50'3 3.4
2016-Nov-20 12:33N 51°20' E 003°49'9 3.0
2016-Nov-20 09:33N 51°25' E 003°37'0 0.1
2016-Nov-20 08:31N 51°25' E 003°37'0 0.0
2016-Nov-20 07:31N 51°25' E 003°37'0 0.0
2016-Nov-20 06:31N 51°25' E 003°37'0 0.1
2016-Nov-20 05:34N 51°25' E 003°37'0 0.1
2016-Nov-20 04:34N 51°25' E 003°37'0 0.0
2016-Nov-20 03:34N 51°25' E 003°37'14 6.9
2016-Nov-20 01:33N 51°35' E 003°23'  
Track history (hours):
 
Tides and Currents Weather Stations Pressure Air Temp Water Temp Dewpoint Dewpoint Depression Visibility Wind Speed Wind Dir Waves Ship Positions

Stella Polaris

Last reported at 2016-Nov-28 11:04 UTC. Time now 2016-Dec-05 20:36 UTC.
Position N 49°52' W 004°28'.

Length 117 m; draft 7.7 m.

Type: Ship (hazmat cat A). MMSI: 245911000.

Date/timePositionNaut miles runAvg speedWind from/ knotsBaromVisibWave heightAir tempDewpointWater temp
2016-Nov-28 11:04N 49°52' W 004°28'914.3
2016-Nov-28 10:26N 49°54' W 004°14'1214.1
2016-Nov-28 09:33N 49°55' W 003°55'1413.6
2016-Nov-28 08:33N 49°57' W 003°33'1412.7
2016-Nov-28 07:25N 49°58' W 003°11'1011.8
2016-Nov-28 06:33N 49°60' W 002°56'5112.8
2016-Nov-28 02:33N 50°14' W 001°39'5015.5
2016-Nov-27 23:19N 50°27' W 000°24'1114.0
2016-Nov-27 22:32N 50°30' W 000°07'1313.1
2016-Nov-27 21:31N 50°34' E 000°13'4312.6
2016-Nov-27 18:07N 50°55' E 001°12'915.3
2016-Nov-27 17:33N 51°01' E 001°22'1515.4
2016-Nov-27 16:33N 51°11' E 001°41'1413.8
2016-Nov-27 15:34N 51°21' E 001°55'1110.7
2016-Nov-27 14:31N 51°22' E 002°13'1111.9
2016-Nov-27 13:33N 51°23' E 002°31'1211.8
2016-Nov-27 12:33N 51°22' E 002°50'1111.1
2016-Nov-27 11:34N 51°24' E 003°07'1110.5
2016-Nov-27 10:33N 51°25' E 003°24'1010.3
2016-Nov-27 09:33N 51°26' E 003°41'8 8.4
2016-Nov-27 08:33N 51°20' E 003°49'3 3.0
2016-Nov-27 07:33N 51°17' E 003°50'5 4.6
2016-Nov-27 06:33N 51°12' E 003°48'0 0.0
2016-Nov-27 05:29N 51°12' E 003°48'0 0.0
2016-Nov-27 04:26N 51°12' E 003°48'0 0.0
2016-Nov-27 03:32N 51°12' E 003°48'0 0.0
2016-Nov-27 00:08N 51°12' E 003°48'0 0.0
2016-Nov-26 23:31N 51°12' E 003°48'0 0.0
2016-Nov-26 21:31N 51°12' E 003°48'0 0.0
2016-Nov-26 20:13N 51°12' E 003°48'0 0.0
2016-Nov-26 19:28N 51°12' E 003°48'0 0.0
2016-Nov-26 18:28N 51°12' E 003°48'0 0.0
2016-Nov-26 17:25N 51°12' E 003°48'0 0.0
2016-Nov-26 16:28N 51°12' E 003°48'0 0.0
2016-Nov-26 15:31N 51°12' E 003°48'0 0.0
2016-Nov-26 14:19N 51°12' E 003°48'0 0.0
2016-Nov-26 13:25N 51°12' E 003°48'0 0.0
2016-Nov-26 12:28N 51°12' E 003°48'0 0.0
2016-Nov-26 11:31N 51°12' E 003°48'0 0.0
2016-Nov-26 10:30N 51°12' E 003°48'0 0.0
2016-Nov-26 09:30N 51°12' E 003°48'0 0.0
2016-Nov-26 08:27N 51°12' E 003°48'0 0.0
2016-Nov-26 07:33N 51°12' E 003°48'0 0.0
2016-Nov-26 06:18N 51°12' E 003°48'0 0.0
2016-Nov-26 05:21N 51°12' E 003°48'0 0.0
2016-Nov-26 03:24N 51°12' E 003°48'0 0.0
2016-Nov-26 02:24N 51°12' E 003°48'0 0.0
2016-Nov-26 01:30N 51°12' E 003°48'0 0.0
2016-Nov-26 00:33N 51°12' E 003°48'0 0.0
2016-Nov-25 23:16N 51°12' E 003°48'0 0.0
2016-Nov-25 22:25N 51°12' E 003°48'0 0.0
2016-Nov-25 21:31N 51°12' E 003°48'0 0.0
2016-Nov-25 20:22N 51°12' E 003°48'0 0.0
2016-Nov-25 19:33N 51°12' E 003°48'5 4.9
2016-Nov-25 18:33N 51°17' E 003°50'3 2.9
2016-Nov-25 17:34N 51°20' E 003°49'4 4.3
2016-Nov-25 16:33N 51°23' E 003°44'8 7.6
2016-Nov-25 15:33N 51°27' E 003°34'1010.1
2016-Nov-25 14:33N 51°35' E 003°24'1211.3
2016-Nov-25 13:32N 51°45' E 003°16'2 0.6
2016-Nov-25 10:32N 51°46' E 003°19'0 0.0
2016-Nov-25 09:17N 51°46' E 003°19'0 0.0
2016-Nov-25 08:14N 51°46' E 003°19'0 0.0
2016-Nov-25 07:26N 51°46' E 003°19'0 0.0
2016-Nov-25 06:32N 51°46' E 003°19'0 0.0
2016-Nov-25 05:32N 51°46' E 003°19'0 0.0
2016-Nov-25 04:32N 51°46' E 003°19'0 0.0
2016-Nov-25 03:26N 51°46' E 003°19'0 0.0
2016-Nov-25 02:32N 51°46' E 003°19'0 0.0
2016-Nov-25 01:26N 51°46' E 003°19'0 0.0
2016-Nov-25 00:20N 51°46' E 003°19'0 0.0
2016-Nov-24 16:32N 51°46' E 003°19'0 0.0
2016-Nov-24 15:29N 51°46' E 003°19'0 0.0
2016-Nov-24 13:17N 51°46' E 003°19'0 0.0
2016-Nov-24 12:05N 51°46' E 003°19'0 0.0
2016-Nov-24 11:32N 51°46' E 003°19'0 0.0
2016-Nov-24 09:28N 51°46' E 003°19'0 0.0
2016-Nov-24 08:22N 51°46' E 003°19'0 0.0
2016-Nov-24 07:09N 51°46' E 003°19'0 0.0
2016-Nov-24 06:12N 51°46' E 003°19'0 0.0
2016-Nov-24 00:18N 51°46' E 003°19'0 0.0
2016-Nov-23 23:27N 51°46' E 003°19'0 0.0
2016-Nov-23 22:33N 51°46' E 003°19'0 0.0
2016-Nov-23 21:33N 51°46' E 003°19'0 0.0
2016-Nov-23 18:33N 51°46' E 003°19'0 0.0
2016-Nov-23 16:27N 51°46' E 003°19'0 0.0
2016-Nov-23 15:33N 51°46' E 003°19'0 0.0
2016-Nov-23 14:33N 51°46' E 003°19'0 0.0
2016-Nov-23 13:15N 51°46' E 003°19'0 0.1
2016-Nov-23 11:09N 51°46' E 003°19'0 0.0
2016-Nov-23 10:33N 51°46' E 003°19'0 0.0
2016-Nov-23 09:33N 51°46' E 003°19'0 0.0
2016-Nov-23 08:33N 51°46' E 003°19'0 0.0
2016-Nov-23 07:24N 51°46' E 003°19'0 0.0
2016-Nov-23 06:33N 51°46' E 003°19'0 0.0
2016-Nov-23 03:33N 51°46' E 003°19'0 0.0
2016-Nov-23 02:33N 51°46' E 003°19'0 0.1
2016-Nov-23 00:33N 51°46' E 003°19'0 0.0
2016-Nov-22 23:33N 51°46' E 003°19'4 3.6
2016-Nov-22 22:33N 51°43' E 003°17'2311.4
2016-Nov-22 20:33N 51°26' E 003°42'8 7.6
2016-Nov-22 19:33N 51°19' E 003°49'7 3.6
2016-Nov-22 17:31N 51°12' E 003°48'0 0.0
2016-Nov-22 16:13N 51°12' E 003°48'0 0.0
2016-Nov-22 15:28N 51°12' E 003°48'0 0.0
2016-Nov-22 14:28N 51°12' E 003°48'0 0.0
2016-Nov-22 13:31N 51°12' E 003°48'0 0.0
2016-Nov-22 09:28N 51°12' E 003°48'0 0.0
2016-Nov-22 07:28N 51°12' E 003°48'0 0.0
2016-Nov-22 05:28N 51°12' E 003°48'0 0.0
2016-Nov-21 17:17N 51°12' E 003°48'0 0.0
2016-Nov-21 07:14N 51°12' E 003°48'0 0.0
2016-Nov-21 05:32N 51°12' E 003°48'0 0.0
2016-Nov-21 04:29N 51°12' E 003°48'0 0.0
2016-Nov-20 22:07N 51°12' E 003°48'0 0.0
2016-Nov-20 21:10N 51°12' E 003°48'0 0.0
2016-Nov-20 14:33N 51°12' E 003°48'4 4.5
2016-Nov-20 13:33N 51°16' E 003°50'3 3.4
2016-Nov-20 12:33N 51°20' E 003°49'9 3.0
2016-Nov-20 09:33N 51°25' E 003°37'0 0.1
2016-Nov-20 08:31N 51°25' E 003°37'0 0.0
2016-Nov-20 07:31N 51°25' E 003°37'0 0.0
2016-Nov-20 06:31N 51°25' E 003°37'0 0.1
2016-Nov-20 05:34N 51°25' E 003°37'0 0.1
2016-Nov-20 04:34N 51°25' E 003°37'0 0.0
2016-Nov-20 03:34N 51°25' E 003°37'14 6.9
2016-Nov-20 01:33N 51°35' E 003°23'  

Dump ship's entire track history